createdAt,value
2016-12-20T00:00:35.342Z,94.2
2016-12-20T00:01:38.790Z,94.2
2016-12-20T00:02:41.734Z,94.2
2016-12-20T00:03:45.182Z,94.2
2016-12-20T00:04:48.124Z,94.2
2016-12-20T00:05:51.065Z,94.2
2016-12-20T00:06:54.512Z,94.2
2016-12-20T00:07:57.454Z,94.2
2016-12-20T00:09:00.902Z,94.2
2016-12-20T00:10:03.849Z,94.2
2016-12-20T00:11:06.792Z,94.2
2016-12-20T00:12:10.241Z,94.2
2016-12-20T00:13:13.182Z,94.2
2016-12-20T00:14:16.631Z,94.2
2016-12-20T00:15:19.573Z,94.2
2016-12-20T00:16:23.026Z,94.2
2016-12-20T00:17:25.972Z,94.2
2016-12-20T00:18:28.916Z,94.2
2016-12-20T00:19:32.366Z,94.2
2016-12-20T00:20:35.312Z,94.2
2016-12-20T00:21:38.756Z,94.2
2016-12-20T00:22:41.701Z,94.2
2016-12-20T00:23:45.160Z,94.2
2016-12-20T00:24:48.102Z,94.2
2016-12-20T00:25:51.047Z,94.2
2016-12-20T00:26:54.495Z,94.2
2016-12-20T00:27:57.448Z,94.2
2016-12-20T00:29:00.894Z,94.2
2016-12-20T00:30:03.836Z,94.2
2016-12-20T00:31:06.783Z,94.2
2016-12-20T00:32:10.226Z,94.2
2016-12-20T00:33:13.169Z,94.2
2016-12-20T00:34:16.622Z,94.2
2016-12-20T00:35:19.566Z,94.2
2016-12-20T00:37:25.926Z,94.2
2016-12-20T00:38:29.379Z,94.2
2016-12-20T00:39:32.338Z,94.2
2016-12-20T00:40:35.282Z,94.2
2016-12-20T00:41:38.733Z,94.2
2016-12-20T00:42:41.679Z,94.2
2016-12-20T00:43:45.128Z,94.2
2016-12-20T00:44:48.081Z,94.2
2016-12-20T00:45:51.028Z,94.2
2016-12-20T00:46:54.480Z,94.2
2016-12-20T00:47:57.421Z,94.2
2016-12-20T00:49:00.863Z,94.2
2016-12-20T00:50:03.809Z,94.2
2016-12-20T00:51:07.257Z,94.2
2016-12-20T00:52:10.203Z,94.2
2016-12-20T00:53:13.282Z,94.3
2016-12-20T00:54:16.734Z,94.2
2016-12-20T00:55:19.677Z,94.3
2016-12-20T00:56:22.619Z,94.3
2016-12-20T00:57:26.066Z,94.3
2016-12-20T00:58:29.010Z,94.2
2016-12-20T00:59:32.459Z,94.2
2016-12-20T01:00:35.398Z,94.2
2016-12-20T01:01:38.352Z,94.3
2016-12-20T01:02:41.798Z,94.3
2016-12-20T01:03:44.743Z,94.3
2016-12-20T01:04:48.189Z,94.3
2016-12-20T01:05:51.134Z,94.3
2016-12-20T01:06:54.583Z,94.3
2016-12-20T01:07:57.525Z,94.3
2016-12-20T01:09:00.469Z,94.3
2016-12-20T01:10:03.914Z,94.3
2016-12-20T01:11:06.856Z,94.3
2016-12-20T01:12:10.302Z,94.3
2016-12-20T01:13:13.247Z,94.3
2016-12-20T01:14:16.692Z,94.3
2016-12-20T01:15:19.629Z,94.2
2016-12-20T01:16:22.570Z,94.2
2016-12-20T01:17:26.017Z,94.2
2016-12-20T01:18:28.964Z,94.3
2016-12-20T01:19:32.411Z,94.3
2016-12-20T01:20:35.356Z,94.3
2016-12-20T01:21:38.363Z,94.3
2016-12-20T01:22:41.813Z,94.3
2016-12-20T01:23:44.761Z,94.3
2016-12-20T01:24:48.210Z,94.3
2016-12-20T01:25:51.152Z,94.3
2016-12-20T01:26:54.096Z,94.2
2016-12-20T01:27:57.550Z,94.3
2016-12-20T01:30:03.906Z,94.3
2016-12-20T01:31:06.850Z,94.2
2016-12-20T01:32:10.296Z,94.2
2016-12-20T01:33:13.243Z,94.2
2016-12-20T01:34:16.189Z,94.2
2016-12-20T01:35:19.641Z,94.2
2016-12-20T01:36:22.864Z,94.2
2016-12-20T01:37:25.810Z,94.2
2016-12-20T01:38:29.257Z,94.2
2016-12-20T01:39:32.198Z,94.2
2016-12-20T01:40:35.140Z,94.2
2016-12-20T01:41:38.588Z,94.2
2016-12-20T01:42:41.533Z,94.2
2016-12-20T01:43:44.983Z,94.2
2016-12-20T01:44:47.926Z,94.2
2016-12-20T01:45:50.869Z,94.2
2016-12-20T01:47:57.225Z,94.2
2016-12-20T01:49:00.670Z,94.2
2016-12-20T01:50:03.619Z,94.2
2016-12-20T01:51:07.067Z,94.2
2016-12-20T01:52:10.009Z,94.2
2016-12-20T01:53:12.954Z,94.2
2016-12-20T01:54:16.400Z,94.2
2016-12-20T01:55:19.342Z,94.2
2016-12-20T01:56:22.828Z,94.2
2016-12-20T01:57:25.770Z,94.2
2016-12-20T01:58:28.711Z,94.2
2016-12-20T01:59:32.155Z,94.2
2016-12-20T02:00:35.100Z,94.2
2016-12-20T02:01:38.549Z,94.2
2016-12-20T02:02:41.490Z,94.2
2016-12-20T02:03:44.932Z,94.2
2016-12-20T02:04:47.943Z,94.2
2016-12-20T02:05:50.885Z,94.2
2016-12-20T02:06:54.330Z,94.2
2016-12-20T02:07:57.273Z,94.2
2016-12-20T02:09:00.728Z,94.2
2016-12-20T02:10:03.675Z,94.2
2016-12-20T02:11:06.622Z,94.2
2016-12-20T02:12:10.064Z,94.2
2016-12-20T02:13:13.007Z,94.2
2016-12-20T02:14:16.450Z,94.2
2016-12-20T02:15:19.395Z,94.2
2016-12-20T02:16:22.342Z,94.2
2016-12-20T02:17:25.928Z,94.2
2016-12-20T02:18:28.871Z,94.2
2016-12-20T02:19:31.878Z,94.2
2016-12-20T02:20:35.327Z,94.2
2016-12-20T02:22:41.693Z,94.2
2016-12-20T02:23:44.650Z,94.2
2016-12-20T02:24:47.593Z,94.2
2016-12-20T02:25:51.044Z,94.2
2016-12-20T02:26:53.998Z,94.2
2016-12-20T02:27:57.450Z,94.1
2016-12-20T02:29:00.392Z,94.1
2016-12-20T02:30:03.334Z,94.1
2016-12-20T02:31:06.781Z,94.1
2016-12-20T02:32:09.723Z,94.1
2016-12-20T02:33:13.167Z,94.1
2016-12-20T02:34:16.115Z,94.1
2016-12-20T02:35:19.056Z,94.1
2016-12-20T02:36:22.500Z,94.1
2016-12-20T02:37:25.442Z,94.1
2016-12-20T02:38:28.893Z,94.1
2016-12-20T02:39:31.838Z,94.1
2016-12-20T02:40:35.291Z,94.1
2016-12-20T02:41:38.234Z,94.1
2016-12-20T02:42:41.177Z,94.1
2016-12-20T02:43:44.628Z,94.1
2016-12-20T02:44:47.606Z,94.1
2016-12-20T02:45:51.048Z,94.1
2016-12-20T02:46:53.990Z,94.1
2016-12-20T02:47:56.930Z,94.1
2016-12-20T02:49:00.381Z,94.1
2016-12-20T02:50:03.348Z,94.1
2016-12-20T02:51:06.800Z,94.1
2016-12-20T02:52:09.742Z,94.1
2016-12-20T02:53:12.686Z,94.1
2016-12-20T02:54:16.133Z,94.1
2016-12-20T02:55:19.074Z,94.1
2016-12-20T02:56:22.521Z,94.1
2016-12-20T02:57:25.461Z,94.1
2016-12-20T02:58:28.401Z,94.1
2016-12-20T02:59:31.849Z,94.1
2016-12-20T03:00:34.794Z,94.1
2016-12-20T03:01:38.241Z,94.1
2016-12-20T03:02:41.188Z,94.1
2016-12-20T03:03:44.636Z,94.1
2016-12-20T03:04:47.585Z,94.1
2016-12-20T03:05:50.563Z,94.1
2016-12-20T03:06:54.023Z,94.1
2016-12-20T03:07:56.969Z,94.1
2016-12-20T03:08:59.910Z,94.1
2016-12-20T03:10:03.358Z,94.1
2016-12-20T03:11:06.335Z,94.1
2016-12-20T03:12:09.844Z,94.1
2016-12-20T03:13:12.789Z,94.2
2016-12-20T03:14:15.730Z,94.2
2016-12-20T03:15:19.175Z,94.2
2016-12-20T03:16:22.152Z,94.2
2016-12-20T03:17:25.605Z,94.2
2016-12-20T03:18:28.550Z,94.2
2016-12-20T03:19:31.493Z,94.2
2016-12-20T03:20:34.937Z,94.2
2016-12-20T03:22:41.144Z,94.2
2016-12-20T03:23:44.091Z,94.2
2016-12-20T03:24:47.253Z,94.2
2016-12-20T03:25:50.703Z,94.3
2016-12-20T03:26:53.646Z,94.3
2016-12-20T03:27:57.098Z,94.3
2016-12-20T03:29:00.046Z,94.3
2016-12-20T03:30:02.986Z,94.3
2016-12-20T03:31:06.432Z,94.3
2016-12-20T03:32:09.382Z,94.3
2016-12-20T03:33:12.827Z,94.3
2016-12-20T03:34:15.774Z,94.3
2016-12-20T03:35:19.221Z,94.3
2016-12-20T03:37:25.075Z,94.3
2016-12-20T03:38:28.522Z,94.3
2016-12-20T03:39:31.469Z,94.3
2016-12-20T03:40:34.941Z,94.3
2016-12-20T03:41:37.890Z,94.3
2016-12-20T03:42:41.340Z,94.3
2016-12-20T03:43:44.281Z,94.3
2016-12-20T03:44:47.229Z,94.3
2016-12-20T03:45:50.678Z,94.3
2016-12-20T03:46:53.624Z,94.3
2016-12-20T03:47:57.072Z,94.3
2016-12-20T03:49:00.012Z,94.3
2016-12-20T03:50:02.957Z,94.3
2016-12-20T03:51:06.410Z,94.3
2016-12-20T03:52:09.352Z,94.3
2016-12-20T03:53:12.795Z,94.3
2016-12-20T03:54:15.737Z,94.3
2016-12-20T03:55:18.679Z,94.4
2016-12-20T03:56:22.154Z,94.4
2016-12-20T03:57:25.096Z,94.4
2016-12-20T03:58:28.538Z,94.3
2016-12-20T03:59:31.512Z,94.4
2016-12-20T04:00:34.461Z,94.4
2016-12-20T04:01:37.906Z,94.4
2016-12-20T04:02:40.850Z,94.4
2016-12-20T04:04:47.239Z,94.3
2016-12-20T04:05:50.181Z,94.3
2016-12-20T04:06:53.627Z,94.4
2016-12-20T04:07:56.570Z,94.3
2016-12-20T04:09:00.018Z,94.3
2016-12-20T04:10:02.964Z,94.3
2016-12-20T04:11:05.912Z,94.4
2016-12-20T04:12:09.357Z,94.4
2016-12-20T04:13:12.302Z,94.4
2016-12-20T04:14:15.747Z,94.4
2016-12-20T04:15:18.688Z,94.4
2016-12-20T04:16:22.133Z,94.4
2016-12-20T04:17:25.081Z,94.4
2016-12-20T04:18:28.022Z,94.4
2016-12-20T04:19:31.469Z,94.4
2016-12-20T04:20:34.411Z,94.4
2016-12-20T04:21:37.861Z,94.4
2016-12-20T04:22:40.806Z,94.4
2016-12-20T04:23:43.746Z,94.4
2016-12-20T04:24:47.194Z,94.4
2016-12-20T04:25:50.145Z,94.4
2016-12-20T04:26:53.601Z,94.4
2016-12-20T04:27:56.550Z,94.4
2016-12-20T04:28:59.487Z,94.4
2016-12-20T04:30:02.937Z,94.4
2016-12-20T04:31:05.882Z,94.4
2016-12-20T04:32:09.325Z,94.4
2016-12-20T04:33:12.403Z,94.4
2016-12-20T04:34:15.344Z,94.4
2016-12-20T04:35:18.833Z,94.4
2016-12-20T04:36:21.776Z,94.4
2016-12-20T04:37:24.719Z,94.4
2016-12-20T04:38:28.161Z,94.4
2016-12-20T04:39:31.103Z,94.4
2016-12-20T04:40:34.553Z,94.4
2016-12-20T04:41:37.495Z,94.4
2016-12-20T04:42:40.435Z,94.4
2016-12-20T04:43:43.879Z,94.4
2016-12-20T04:44:46.822Z,94.4
2016-12-20T04:45:50.270Z,94.4
2016-12-20T04:46:53.216Z,94.4
2016-12-20T04:47:56.161Z,94.4
2016-12-20T04:48:59.606Z,94.4
2016-12-20T04:51:05.959Z,94.4
2016-12-20T04:52:08.901Z,94.4
2016-12-20T04:53:12.368Z,94.4
2016-12-20T04:54:15.315Z,94.3
2016-12-20T04:55:18.258Z,94.3
2016-12-20T04:56:21.706Z,94.3
2016-12-20T04:57:24.650Z,94.3
2016-12-20T04:58:28.128Z,94.3
2016-12-20T04:59:31.071Z,94.3
2016-12-20T05:00:34.011Z,94.3
2016-12-20T05:01:37.461Z,94.3
2016-12-20T05:02:40.403Z,94.3
2016-12-20T05:03:43.349Z,94.3
2016-12-20T05:04:46.793Z,94.3
2016-12-20T05:05:49.740Z,94.3
2016-12-20T05:06:53.186Z,94.3
2016-12-20T05:07:56.131Z,94.2
2016-12-20T05:08:59.082Z,94.2
2016-12-20T05:10:02.532Z,94.2
2016-12-20T05:11:05.475Z,94.2
2016-12-20T05:12:08.925Z,94.2
2016-12-20T05:13:11.869Z,94.2
2016-12-20T05:14:15.314Z,94.2
2016-12-20T05:16:21.161Z,94.2
2016-12-20T05:17:24.605Z,94.2
2016-12-20T05:18:27.550Z,94.2
2016-12-20T05:19:30.995Z,94.1
2016-12-20T05:20:33.938Z,94.1
2016-12-20T05:21:36.944Z,94.1
2016-12-20T05:22:40.392Z,94.1
2016-12-20T05:23:43.338Z,94.1
2016-12-20T05:25:49.689Z,94.1
2016-12-20T05:26:52.631Z,94.1
2016-12-20T05:27:56.076Z,94.1
2016-12-20T05:28:59.025Z,94.1
2016-12-20T05:30:02.459Z,94.1
2016-12-20T05:31:05.403Z,94.1
2016-12-20T05:32:08.347Z,94.1
2016-12-20T05:33:11.796Z,94.1
2016-12-20T05:34:14.746Z,94.1
2016-12-20T05:35:18.189Z,94.1
2016-12-20T05:36:21.135Z,94
2016-12-20T05:37:24.078Z,94
2016-12-20T05:38:27.525Z,94
2016-12-20T05:39:30.466Z,94
2016-12-20T05:40:33.912Z,94
2016-12-20T05:41:36.860Z,94
2016-12-20T05:42:39.799Z,94
2016-12-20T05:43:43.247Z,94
2016-12-20T05:44:46.187Z,94
2016-12-20T05:45:49.635Z,94
2016-12-20T05:46:52.584Z,94
2016-12-20T05:47:55.527Z,94
2016-12-20T05:48:58.970Z,94
2016-12-20T05:50:01.919Z,94
2016-12-20T05:51:05.368Z,94
2016-12-20T05:52:08.308Z,94
2016-12-20T05:53:11.756Z,93.9
2016-12-20T05:54:14.694Z,93.9
2016-12-20T05:55:17.639Z,93.9
2016-12-20T05:56:21.084Z,93.9
2016-12-20T05:57:24.026Z,93.9
2016-12-20T05:58:27.472Z,93.9
2016-12-20T05:59:30.415Z,93.9
2016-12-20T06:00:33.358Z,93.9
2016-12-20T06:01:36.800Z,93.9
2016-12-20T06:02:39.738Z,93.9
2016-12-20T06:03:43.189Z,93.9
2016-12-20T06:04:46.133Z,93.9
2016-12-20T06:06:52.490Z,93.9
2016-12-20T06:07:55.433Z,93.9
2016-12-20T06:08:58.881Z,93.9
2016-12-20T06:10:01.829Z,93.8
2016-12-20T06:11:04.773Z,93.8
2016-12-20T06:12:08.241Z,93.8
2016-12-20T06:13:11.177Z,93.8
2016-12-20T06:14:14.627Z,93.8
2016-12-20T06:15:17.574Z,93.8
2016-12-20T06:16:20.516Z,93.8
2016-12-20T06:17:23.976Z,93.8
2016-12-20T06:18:26.919Z,93.8
2016-12-20T06:19:30.017Z,93.8
2016-12-20T06:20:33.462Z,93.8
2016-12-20T06:21:36.403Z,93.8
2016-12-20T06:22:39.848Z,93.8
2016-12-20T06:23:42.794Z,93.9
2016-12-20T06:24:45.771Z,93.8
2016-12-20T06:25:49.215Z,93.8
2016-12-20T06:27:55.565Z,93.8
2016-12-20T06:28:58.508Z,93.8
2016-12-20T06:30:01.448Z,93.8
2016-12-20T06:31:04.893Z,93.8
2016-12-20T06:32:07.834Z,93.8
2016-12-20T06:33:11.278Z,93.8
2016-12-20T06:34:14.222Z,93.8
2016-12-20T06:35:17.162Z,93.8
2016-12-20T06:36:20.609Z,93.8
2016-12-20T06:37:23.552Z,93.8
2016-12-20T06:38:26.999Z,93.8
2016-12-20T06:39:29.942Z,93.8
2016-12-20T06:40:32.880Z,93.8
2016-12-20T06:41:36.331Z,93.8
2016-12-20T06:42:39.275Z,93.8
2016-12-20T06:43:42.718Z,93.8
2016-12-20T06:44:45.664Z,93.8
2016-12-20T06:45:48.602Z,93.8
2016-12-20T06:46:52.047Z,93.7
2016-12-20T06:47:54.989Z,93.7
2016-12-20T06:48:58.438Z,93.7
2016-12-20T06:50:01.381Z,93.7
2016-12-20T06:51:04.323Z,93.7
2016-12-20T06:52:07.769Z,93.7
2016-12-20T06:53:10.710Z,93.7
2016-12-20T06:54:14.152Z,93.7
2016-12-20T06:55:17.093Z,93.7
2016-12-20T06:56:20.034Z,93.7
2016-12-20T06:57:23.479Z,93.7
2016-12-20T06:58:26.416Z,93.7
2016-12-20T06:59:29.864Z,93.7
2016-12-20T07:00:32.812Z,93.6
2016-12-20T07:01:35.756Z,93.6
2016-12-20T07:02:39.198Z,93.6
2016-12-20T07:03:42.134Z,93.6
2016-12-20T07:04:45.577Z,93.6
2016-12-20T07:05:48.517Z,93.6
2016-12-20T07:06:51.460Z,93.6
2016-12-20T07:07:54.913Z,93.6
2016-12-20T07:08:57.859Z,93.6
2016-12-20T07:10:01.309Z,93.6
2016-12-20T07:11:04.253Z,93.6
2016-12-20T07:12:07.196Z,93.6
2016-12-20T07:13:10.639Z,93.6
2016-12-20T07:14:13.579Z,93.5
2016-12-20T07:15:17.024Z,93.5
2016-12-20T07:16:19.973Z,93.5
2016-12-20T07:17:22.919Z,93.5
2016-12-20T07:18:26.366Z,93.5
2016-12-20T07:19:29.307Z,93.5
2016-12-20T07:20:32.751Z,93.5
2016-12-20T07:21:35.694Z,93.5
2016-12-20T07:22:38.639Z,93.5
2016-12-20T07:23:42.088Z,93.5
2016-12-20T07:24:45.034Z,93.5
2016-12-20T07:25:48.477Z,93.5
2016-12-20T07:26:51.558Z,93.5
2016-12-20T07:28:58.051Z,93.4
2016-12-20T07:30:01.018Z,93.4
2016-12-20T07:31:03.959Z,93.4
2016-12-20T07:32:06.905Z,93.4
2016-12-20T07:33:10.347Z,93.4
2016-12-20T07:34:13.290Z,93.4
2016-12-20T07:35:16.736Z,93.4
2016-12-20T07:36:19.738Z,93.4
2016-12-20T07:37:22.675Z,93.4
2016-12-20T07:38:26.117Z,93.4
2016-12-20T07:39:29.061Z,93.3
2016-12-20T07:40:31.999Z,93.3
2016-12-20T07:41:35.190Z,93.3
2016-12-20T07:42:38.634Z,93.3
2016-12-20T07:43:41.575Z,93.3
2016-12-20T07:44:45.016Z,93.3
2016-12-20T07:45:47.957Z,93.3
2016-12-20T07:46:50.899Z,93.3
2016-12-20T07:47:54.343Z,93.3
2016-12-20T07:48:57.281Z,93.3
2016-12-20T07:50:00.736Z,93.3
2016-12-20T07:51:03.675Z,93.3
2016-12-20T07:52:06.621Z,93.3
2016-12-20T07:53:10.065Z,93.3
2016-12-20T07:54:13.008Z,93.3
2016-12-20T07:55:16.458Z,93.3
2016-12-20T07:56:19.432Z,93.3
2016-12-20T07:57:22.374Z,93.2
2016-12-20T07:58:25.829Z,93.2
2016-12-20T07:59:28.812Z,93.2
2016-12-20T08:00:31.755Z,93.2
2016-12-20T08:01:35.200Z,93.2
2016-12-20T08:02:38.143Z,93.2
2016-12-20T08:04:44.494Z,93.2
2016-12-20T08:05:47.439Z,93.2
2016-12-20T08:06:50.888Z,93.2
2016-12-20T08:07:53.829Z,93.2
2016-12-20T08:08:57.272Z,93.2
2016-12-20T08:10:00.211Z,93.2
2016-12-20T08:11:03.155Z,93.2
2016-12-20T08:12:06.604Z,93.1
2016-12-20T08:13:09.542Z,93.1
2016-12-20T08:14:12.986Z,93.1
2016-12-20T08:15:15.934Z,93.1
2016-12-20T08:16:18.878Z,93.1
2016-12-20T08:17:22.328Z,93.1
2016-12-20T08:18:25.322Z,93.1
2016-12-20T08:19:28.768Z,93.1
2016-12-20T08:20:31.714Z,93.1
2016-12-20T08:21:34.662Z,93.1
2016-12-20T08:22:38.107Z,93.1
2016-12-20T08:23:41.048Z,93.1
2016-12-20T08:24:44.493Z,93.1
2016-12-20T08:25:47.436Z,93.1
2016-12-20T08:26:50.381Z,93.1
2016-12-20T08:27:53.820Z,93.1
2016-12-20T08:28:56.759Z,93.1
2016-12-20T08:30:00.206Z,93.1
2016-12-20T08:31:03.149Z,93.1
2016-12-20T08:32:06.093Z,93.1
2016-12-20T08:33:09.540Z,93.1
2016-12-20T08:34:12.483Z,93.1
2016-12-20T08:35:15.924Z,93.1
2016-12-20T08:36:18.864Z,93.1
2016-12-20T08:37:21.806Z,93.1
2016-12-20T08:38:25.251Z,93.1
2016-12-20T08:39:28.194Z,93.1
2016-12-20T08:40:31.643Z,93.1
2016-12-20T08:41:34.585Z,93.1
2016-12-20T08:42:37.531Z,93.1
2016-12-20T08:43:40.978Z,93.1
2016-12-20T08:44:43.927Z,93.1
2016-12-20T08:45:47.377Z,93.2
2016-12-20T08:47:53.231Z,93.2
2016-12-20T08:48:56.669Z,93.2
2016-12-20T08:49:59.610Z,93.2
2016-12-20T08:51:03.056Z,93.2
2016-12-20T08:52:05.998Z,93.2
2016-12-20T08:53:08.985Z,93.2
2016-12-20T08:54:12.432Z,93.2
2016-12-20T08:55:15.375Z,93.2
2016-12-20T08:56:18.814Z,93.2
2016-12-20T08:57:21.762Z,93.2
2016-12-20T08:58:24.706Z,93.2
2016-12-20T08:59:28.152Z,93.2
2016-12-20T09:00:31.094Z,93.2
2016-12-20T09:01:34.540Z,93.2
2016-12-20T09:02:37.480Z,93.2
2016-12-20T09:03:40.427Z,93.2
2016-12-20T09:04:43.875Z,93.2
2016-12-20T09:05:46.882Z,93.2
2016-12-20T09:07:53.234Z,93.2
2016-12-20T09:08:56.173Z,93.2
2016-12-20T09:11:02.526Z,93.2
2016-12-20T09:12:05.976Z,93.2
2016-12-20T09:13:08.920Z,93.2
2016-12-20T09:14:12.367Z,93.2
2016-12-20T09:15:15.305Z,93.2
2016-12-20T09:16:18.246Z,93.2
2016-12-20T09:17:21.688Z,93.2
2016-12-20T09:18:24.633Z,93.2
2016-12-20T09:19:28.073Z,93.2
2016-12-20T09:20:31.010Z,93.2
2016-12-20T09:21:33.957Z,93.2
2016-12-20T09:22:37.402Z,93.2
2016-12-20T09:23:40.343Z,93.2
2016-12-20T09:24:43.791Z,93.2
2016-12-20T09:25:46.732Z,93.2
2016-12-20T09:26:50.194Z,93.2
2016-12-20T09:27:53.149Z,93.2
2016-12-20T09:28:56.092Z,93.2
2016-12-20T09:29:59.545Z,93.2
2016-12-20T09:31:02.493Z,93.2
2016-12-20T09:32:05.938Z,93.2
2016-12-20T09:33:08.885Z,93.2
2016-12-20T09:34:11.828Z,93.2
2016-12-20T09:36:18.183Z,93.2
2016-12-20T09:37:21.628Z,93.2
2016-12-20T09:38:24.571Z,93.2
2016-12-20T09:39:28.017Z,93.2
2016-12-20T09:40:30.960Z,93.2
2016-12-20T09:41:33.904Z,93.2
2016-12-20T09:42:37.380Z,93.2
2016-12-20T09:43:40.327Z,93.2
2016-12-20T09:44:43.772Z,93.2
2016-12-20T09:45:46.712Z,93.2
2016-12-20T09:46:49.651Z,93.2
2016-12-20T09:47:53.095Z,93.2
2016-12-20T09:48:56.037Z,93.2
2016-12-20T09:49:59.484Z,93.2
2016-12-20T09:51:02.425Z,93.2
2016-12-20T09:52:05.870Z,93.2
2016-12-20T09:53:08.808Z,93.2
2016-12-20T09:54:11.746Z,93.2
2016-12-20T09:55:15.190Z,93.2
2016-12-20T09:56:18.132Z,93.2
2016-12-20T09:57:21.582Z,93.2
2016-12-20T09:58:24.528Z,93.3
2016-12-20T09:59:27.471Z,93.2
2016-12-20T10:00:30.916Z,93.2
2016-12-20T10:01:33.857Z,93.2
2016-12-20T10:02:37.304Z,93.2
2016-12-20T10:03:40.245Z,93.2
2016-12-20T10:04:43.688Z,93.2
2016-12-20T10:05:46.634Z,93.2
2016-12-20T10:06:49.579Z,93.2
2016-12-20T10:07:53.026Z,93.2
2016-12-20T10:08:55.969Z,93.2
2016-12-20T10:09:59.409Z,93.3
2016-12-20T10:11:02.347Z,93.3
2016-12-20T10:12:05.797Z,93.3
2016-12-20T10:13:08.740Z,93.3
2016-12-20T10:15:15.089Z,93.3
2016-12-20T10:16:18.031Z,93.3
2016-12-20T10:17:21.478Z,93.3
2016-12-20T10:18:24.418Z,93.3
2016-12-20T10:19:27.862Z,93.3
2016-12-20T10:20:30.808Z,93.3
2016-12-20T10:21:34.258Z,93.3
2016-12-20T10:22:37.199Z,93.3
2016-12-20T10:23:40.141Z,93.3
2016-12-20T10:24:43.581Z,93.3
2016-12-20T10:25:46.523Z,93.3
2016-12-20T10:26:49.970Z,93.3
2016-12-20T10:27:52.915Z,93.3
2016-12-20T10:28:56.355Z,93.3
2016-12-20T10:29:59.307Z,93.3
2016-12-20T10:31:02.250Z,93.3
2016-12-20T10:32:05.697Z,93.3
2016-12-20T10:33:08.637Z,93.3
2016-12-20T10:34:12.078Z,93.3
2016-12-20T10:35:15.020Z,93.3
2016-12-20T10:36:18.523Z,93.3
2016-12-20T10:37:21.477Z,93.2
2016-12-20T10:38:24.422Z,93.2
2016-12-20T10:39:27.870Z,93.2
2016-12-20T10:40:30.812Z,93.2
2016-12-20T10:41:34.260Z,93.2
2016-12-20T10:42:37.203Z,93.2
2016-12-20T10:43:40.152Z,93.2
2016-12-20T10:44:43.599Z,93.2
2016-12-20T10:45:46.539Z,93.2
2016-12-20T10:46:49.983Z,93.2
2016-12-20T10:47:52.930Z,93.2
2016-12-20T10:48:55.931Z,93.2
2016-12-20T10:49:59.373Z,93.2
2016-12-20T10:51:02.353Z,93.2
2016-12-20T10:52:05.800Z,93.2
2016-12-20T10:53:08.739Z,93.2
2016-12-20T10:54:12.191Z,93.2
2016-12-20T10:55:15.129Z,93.2
2016-12-20T10:56:18.073Z,93.2
2016-12-20T10:57:21.532Z,93.2
2016-12-20T10:58:24.511Z,93.2
2016-12-20T10:59:27.957Z,93.2
2016-12-20T11:00:30.893Z,93.2
2016-12-20T11:01:34.338Z,93.2
2016-12-20T11:02:37.282Z,93.2
2016-12-20T11:03:40.219Z,93.2
2016-12-20T11:04:43.661Z,93.2
2016-12-20T11:05:46.599Z,93.2
2016-12-20T11:06:50.041Z,93.2
2016-12-20T11:07:52.981Z,93.2
2016-12-20T11:08:56.423Z,93.3
2016-12-20T11:09:59.360Z,93.3
2016-12-20T11:11:02.809Z,93.2
2016-12-20T11:12:05.755Z,93.3
2016-12-20T11:13:08.697Z,93.3
2016-12-20T11:14:12.141Z,93.3
2016-12-20T11:15:15.090Z,93.3
2016-12-20T11:16:18.542Z,93.3
2016-12-20T11:17:21.490Z,93.3
2016-12-20T11:19:27.844Z,93.3
2016-12-20T11:20:31.182Z,93.3
2016-12-20T11:21:34.121Z,93.3
2016-12-20T11:22:37.571Z,93.3
2016-12-20T11:23:40.550Z,93.3
2016-12-20T11:24:43.491Z,93.3
2016-12-20T11:25:46.935Z,93.3
2016-12-20T11:26:49.880Z,93.3
2016-12-20T11:27:53.328Z,93.3
2016-12-20T11:28:56.274Z,93.3
2016-12-20T11:29:59.720Z,93.3
2016-12-20T11:31:02.662Z,93.3
2016-12-20T11:33:09.022Z,93.3
2016-12-20T11:34:12.461Z,93.3
2016-12-20T11:35:15.405Z,93.3
2016-12-20T11:36:18.346Z,93.3
2016-12-20T11:37:21.789Z,93.3
2016-12-20T11:38:24.726Z,93.3
2016-12-20T11:39:28.177Z,93.3
2016-12-20T11:40:31.121Z,93.3
2016-12-20T11:42:37.466Z,93.3
2016-12-20T11:43:40.914Z,93.2
2016-12-20T11:44:43.860Z,93.2
2016-12-20T11:45:46.803Z,93.3
2016-12-20T11:46:50.247Z,93.2
2016-12-20T11:47:53.198Z,93.3
2016-12-20T11:48:56.645Z,93.3
2016-12-20T11:49:59.589Z,93.3
2016-12-20T11:51:03.033Z,93.3
2016-12-20T11:52:05.975Z,93.3
2016-12-20T11:53:09.423Z,93.3
2016-12-20T11:54:12.365Z,93.3
2016-12-20T11:55:15.304Z,93.3
2016-12-20T11:56:18.750Z,93.2
2016-12-20T11:57:21.687Z,93.3
2016-12-20T11:58:25.135Z,93.2
2016-12-20T11:59:28.080Z,93.3
2016-12-20T12:00:31.526Z,93.3
2016-12-20T12:01:34.467Z,93.3
2016-12-20T12:02:37.916Z,93.3
2016-12-20T12:03:40.859Z,93.3
2016-12-20T12:04:43.808Z,93.3
2016-12-20T12:05:47.255Z,93.3
2016-12-20T12:06:50.196Z,93.3
2016-12-20T12:07:53.636Z,93.3
2016-12-20T12:08:56.579Z,93.3
2016-12-20T12:10:00.025Z,93.3
2016-12-20T12:11:02.976Z,93.3
2016-12-20T12:12:06.419Z,93.3
2016-12-20T12:13:09.360Z,93.3
2016-12-20T12:14:12.301Z,93.3
2016-12-20T12:15:15.745Z,93.3
2016-12-20T12:17:22.096Z,93.3
2016-12-20T12:18:25.045Z,93.3
2016-12-20T12:19:28.627Z,93.3
2016-12-20T12:20:31.579Z,93.3
2016-12-20T12:21:34.518Z,93.3
2016-12-20T12:22:37.968Z,93.3
2016-12-20T12:23:40.908Z,93.3
2016-12-20T12:24:44.484Z,93.3
2016-12-20T12:25:47.422Z,93.3
2016-12-20T12:26:50.362Z,93.3
2016-12-20T12:27:53.812Z,93.3
2016-12-20T12:28:56.756Z,93.3
2016-12-20T12:30:00.211Z,93.3
2016-12-20T12:31:03.154Z,93.2
2016-12-20T12:32:06.594Z,93.2
2016-12-20T12:33:09.532Z,93.2
2016-12-20T12:36:19.436Z,93.2
2016-12-20T12:37:22.373Z,93.3
2016-12-20T12:38:25.314Z,93.3
2016-12-20T12:39:28.757Z,93.3
2016-12-20T12:40:31.694Z,93.2
2016-12-20T12:41:35.136Z,93.3
2016-12-20T12:42:38.076Z,93.3
2016-12-20T12:43:41.519Z,93.3
2016-12-20T12:44:44.460Z,93.3
2016-12-20T12:45:47.408Z,93.3
2016-12-20T12:46:50.853Z,93.3
2016-12-20T12:47:53.794Z,93.3
2016-12-20T12:48:57.237Z,93.3
2016-12-20T12:50:00.180Z,93.3
2016-12-20T12:51:03.627Z,93.3
2016-12-20T12:52:06.568Z,93.2
2016-12-20T12:54:12.917Z,93.3
2016-12-20T12:55:16.355Z,93.3
2016-12-20T12:56:19.298Z,93.3
2016-12-20T12:57:22.747Z,93.3
2016-12-20T12:58:25.682Z,93.3
2016-12-20T12:59:28.623Z,93.3
2016-12-20T13:00:32.069Z,93.3
2016-12-20T13:01:35.017Z,93.3
2016-12-20T13:02:38.460Z,93.3
2016-12-20T13:03:41.398Z,93.3
2016-12-20T13:04:44.841Z,93.3
2016-12-20T13:05:47.781Z,93.3
2016-12-20T13:06:51.227Z,93.3
2016-12-20T13:07:54.172Z,93.3
2016-12-20T13:08:57.117Z,93.3
2016-12-20T13:10:00.568Z,93.3
2016-12-20T13:11:03.510Z,93.3
2016-12-20T13:12:06.948Z,93.3
2016-12-20T13:13:09.891Z,93.3
2016-12-20T13:14:13.333Z,93.3
2016-12-20T13:15:16.278Z,93.3
2016-12-20T13:16:19.726Z,93.3
2016-12-20T13:17:22.666Z,93.3
2016-12-20T13:18:26.112Z,93.3
2016-12-20T13:19:29.191Z,93.3
2016-12-20T13:20:32.130Z,93.3
2016-12-20T13:21:35.715Z,93.3
2016-12-20T13:22:38.659Z,93.3
2016-12-20T13:23:41.600Z,93.3
2016-12-20T13:24:45.045Z,93.3
2016-12-20T13:25:47.985Z,93.3
2016-12-20T13:26:51.429Z,93.4
2016-12-20T13:27:54.374Z,93.4
2016-12-20T13:28:57.821Z,93.4
2016-12-20T13:30:00.762Z,93.4
2016-12-20T13:31:03.702Z,93.4
2016-12-20T13:32:07.151Z,93.4
2016-12-20T13:33:10.108Z,93.4
2016-12-20T13:34:13.552Z,93.4
2016-12-20T13:35:16.496Z,93.4
2016-12-20T13:36:19.943Z,93.4
2016-12-20T13:37:22.895Z,93.4
2016-12-20T13:38:26.339Z,93.4
2016-12-20T13:39:29.285Z,93.4
2016-12-20T13:40:32.226Z,93.4
2016-12-20T13:41:35.670Z,93.4
2016-12-20T13:42:38.611Z,93.4
2016-12-20T13:43:42.059Z,93.4
2016-12-20T13:44:45.000Z,93.4
2016-12-20T13:45:48.446Z,93.4
2016-12-20T13:46:51.386Z,93.4
2016-12-20T13:47:54.835Z,93.4
2016-12-20T13:48:57.779Z,93.4
2016-12-20T13:50:01.228Z,93.4
2016-12-20T13:51:04.173Z,93.4
2016-12-20T13:52:07.121Z,93.4
2016-12-20T13:53:10.569Z,93.5
2016-12-20T13:55:16.920Z,93.5
2016-12-20T13:56:19.859Z,93.5
2016-12-20T13:57:23.305Z,93.5
2016-12-20T13:58:26.245Z,93.5
2016-12-20T13:59:29.692Z,93.5
2016-12-20T14:00:32.642Z,93.5
2016-12-20T14:01:36.092Z,93.5
2016-12-20T14:02:39.036Z,93.5
2016-12-20T14:03:41.979Z,93.5
2016-12-20T14:05:48.335Z,93.5
2016-12-20T14:06:51.788Z,93.5
2016-12-20T14:07:54.727Z,93.5
2016-12-20T14:08:58.173Z,93.5
2016-12-20T14:10:01.121Z,93.5
2016-12-20T14:11:04.566Z,93.5
2016-12-20T14:12:07.510Z,93.6
2016-12-20T14:13:10.955Z,93.6
2016-12-20T14:14:13.967Z,93.6
2016-12-20T14:15:16.905Z,93.6
2016-12-20T14:16:20.350Z,93.6
2016-12-20T14:17:23.297Z,93.6
2016-12-20T14:18:26.743Z,93.6
2016-12-20T14:19:29.686Z,93.6
2016-12-20T14:20:33.127Z,93.6
2016-12-20T14:21:36.066Z,93.6
2016-12-20T14:22:39.515Z,93.6
2016-12-20T14:23:42.454Z,93.6
2016-12-20T14:24:45.397Z,93.6
2016-12-20T14:25:48.845Z,93.6
2016-12-20T14:26:51.789Z,93.6
2016-12-20T14:27:55.236Z,93.6
2016-12-20T14:28:58.184Z,93.6
2016-12-20T14:30:01.631Z,93.6
2016-12-20T14:31:04.573Z,93.7